createdAt,value
2022-10-31T00:01:42.613Z,102106.03
2022-10-31T00:04:11.945Z,102112.22
2022-10-31T00:06:41.190Z,102109.28
2022-10-31T00:09:12.555Z,102110.00
2022-10-31T00:11:41.855Z,102110.56
2022-10-31T00:14:11.395Z,102110.36
2022-10-31T00:16:41.782Z,102109.78
2022-10-31T00:19:11.192Z,102103.92
2022-10-31T00:21:40.499Z,102108.16
2022-10-31T00:24:10.056Z,102115.54
2022-10-31T00:26:39.269Z,102116.39
2022-10-31T00:29:08.689Z,102120.52
2022-10-31T00:31:38.884Z,102126.05
2022-10-31T00:34:08.302Z,102120.22
2022-10-31T00:36:37.888Z,102124.44
2022-10-31T00:39:07.122Z,102127.09
2022-10-31T00:41:36.330Z,102135.50
2022-10-31T00:44:07.368Z,102128.04
2022-10-31T00:46:36.722Z,102123.62
2022-10-31T00:49:06.095Z,102118.48
2022-10-31T00:51:35.501Z,102114.75
2022-10-31T00:54:04.803Z,102110.25
2022-10-31T00:56:34.051Z,102110.22
2022-10-31T00:59:03.579Z,102098.48
2022-10-31T01:01:33.080Z,102098.23
2022-10-31T01:04:03.268Z,102087.43
2022-10-31T01:06:34.265Z,102093.13
2022-10-31T01:09:03.570Z,102099.19
2022-10-31T01:11:33.097Z,102099.61
2022-10-31T01:14:04.075Z,102105.20
2022-10-31T01:16:34.282Z,102100.78
2022-10-31T01:19:03.635Z,102100.98
2022-10-31T01:21:32.892Z,102093.85
2022-10-31T01:24:05.295Z,102092.84
2022-10-31T01:26:35.247Z,102095.22
2022-10-31T01:29:09.343Z,102099.48
2022-10-31T01:31:40.570Z,102097.67
2022-10-31T01:34:10.182Z,102102.80
2022-10-31T01:36:40.008Z,102101.13
2022-10-31T01:39:12.543Z,102097.95
2022-10-31T01:41:44.702Z,102093.27
2022-10-31T01:44:20.100Z,102093.27
2022-10-31T01:46:58.532Z,102088.63
2022-10-31T01:49:45.905Z,102086.30
2022-10-31T01:52:33.043Z,102089.13
2022-10-31T01:55:07.451Z,102083.11
2022-10-31T01:57:37.924Z,102083.70
2022-10-31T02:00:09.999Z,102090.11
2022-10-31T02:02:45.051Z,102084.31
2022-10-31T02:05:17.081Z,102080.56
2022-10-31T02:07:49.468Z,102081.78
2022-10-31T02:10:19.167Z,102084.52
2022-10-31T02:12:48.515Z,102081.53
2022-10-31T02:15:18.033Z,102083.81
2022-10-31T02:17:48.386Z,102077.98
2022-10-31T02:20:20.305Z,102079.86
2022-10-31T02:23:13.322Z,102083.74
2022-10-31T02:26:18.051Z,102081.37
2022-10-31T02:29:07.167Z,102081.37
2022-10-31T02:31:54.449Z,102081.87
2022-10-31T02:34:33.092Z,102077.27
2022-10-31T02:37:14.668Z,102084.80
2022-10-31T02:40:10.988Z,102081.77
2022-10-31T02:43:03.824Z,102076.51
2022-10-31T02:45:36.660Z,102084.31
2022-10-31T02:48:07.495Z,102077.16
2022-10-31T02:50:39.135Z,102084.80
2022-10-31T02:53:08.615Z,102078.22
2022-10-31T02:55:41.254Z,102076.08
2022-10-31T02:58:16.570Z,102077.69
2022-10-31T03:01:11.836Z,102078.23
2022-10-31T03:03:47.271Z,102074.69
2022-10-31T03:06:36.303Z,102077.97
2022-10-31T03:09:26.896Z,102075.80
2022-10-31T03:12:17.058Z,102072.34
2022-10-31T03:14:52.157Z,102066.23
2022-10-31T03:17:24.687Z,102069.81
2022-10-31T03:19:54.264Z,102066.59
2022-10-31T03:22:25.873Z,102069.81
2022-10-31T03:24:56.156Z,102065.41
2022-10-31T03:27:27.825Z,102069.92
2022-10-31T03:29:59.657Z,102070.02
2022-10-31T03:32:36.767Z,102074.33
2022-10-31T03:35:08.124Z,102078.09
2022-10-31T03:37:38.510Z,102088.05
2022-10-31T03:40:10.983Z,102085.42
2022-10-31T03:42:43.355Z,102086.28
2022-10-31T03:45:17.825Z,102085.42
2022-10-31T03:47:47.128Z,102085.06
2022-10-31T03:50:18.308Z,102081.84
2022-10-31T03:53:03.389Z,102078.85
2022-10-31T03:55:35.802Z,102078.09
2022-10-31T03:58:10.776Z,102080.26
2022-10-31T04:00:42.406Z,102083.75
2022-10-31T04:03:21.082Z,102080.26
2022-10-31T04:05:53.198Z,102076.51
2022-10-31T04:08:25.570Z,102082.23
2022-10-31T04:10:56.383Z,102075.95
2022-10-31T04:13:31.163Z,102076.20
2022-10-31T04:16:02.130Z,102072.64
2022-10-31T04:18:31.483Z,102076.58
2022-10-31T04:21:06.107Z,102076.58
2022-10-31T04:23:36.800Z,102075.94
2022-10-31T04:26:07.809Z,102075.27
2022-10-31T04:28:37.437Z,102077.17
2022-10-31T04:31:07.891Z,102081.84
2022-10-31T04:33:38.999Z,102081.75
2022-10-31T04:36:08.869Z,102079.21
2022-10-31T04:38:38.418Z,102074.34
2022-10-31T04:41:09.330Z,102069.63
2022-10-31T04:43:46.239Z,102070.19
2022-10-31T04:46:15.707Z,102070.77
2022-10-31T04:48:45.471Z,102072.64
2022-10-31T04:51:14.949Z,102071.13
2022-10-31T04:53:44.903Z,102067.19
2022-10-31T04:56:34.158Z,102064.20
2022-10-31T04:59:05.116Z,102068.88
2022-10-31T05:01:36.241Z,102070.95
2022-10-31T05:04:05.973Z,102060.23
2022-10-31T05:06:35.263Z,102061.75
2022-10-31T05:09:05.073Z,102059.31
2022-10-31T05:11:34.336Z,102060.32
2022-10-31T05:14:05.457Z,102063.89
2022-10-31T05:16:36.533Z,102055.16
2022-10-31T05:19:26.253Z,102062.73
2022-10-31T05:22:00.304Z,102047.61
2022-10-31T05:24:31.265Z,102046.30
2022-10-31T05:27:00.677Z,102044.22
2022-10-31T05:29:31.571Z,102035.97
2022-10-31T05:32:01.365Z,102037.28
2022-10-31T05:34:35.090Z,102036.73
2022-10-31T05:37:09.152Z,102037.64
2022-10-31T05:39:39.624Z,102031.66
2022-10-31T05:42:10.575Z,102035.88
2022-10-31T05:44:39.838Z,102033.70
2022-10-31T05:47:16.958Z,102030.98
2022-10-31T05:50:00.269Z,102032.20
2022-10-31T05:52:51.464Z,102036.20
2022-10-31T05:55:22.395Z,102036.78
2022-10-31T05:57:53.993Z,102032.16
2022-10-31T06:00:24.011Z,102040.80
2022-10-31T06:03:01.744Z,102029.43
2022-10-31T06:05:54.951Z,102031.79
2022-10-31T06:08:22.609Z,102035.55
2022-10-31T06:10:54.024Z,102042.78
2022-10-31T06:13:26.203Z,102040.53
2022-10-31T06:15:57.054Z,102043.80
2022-10-31T06:18:27.955Z,102038.84
2022-10-31T06:20:57.234Z,102039.38
2022-10-31T06:23:26.898Z,102034.88
2022-10-31T06:25:57.950Z,102036.55
2022-10-31T06:28:27.503Z,102030.09
2022-10-31T06:30:58.511Z,102034.13
2022-10-31T06:33:28.165Z,102028.31
2022-10-31T06:35:59.267Z,102031.77
2022-10-31T06:38:29.435Z,102035.16
2022-10-31T06:40:59.288Z,102027.45
2022-10-31T06:43:29.624Z,102030.18
2022-10-31T06:46:05.497Z,102028.50
2022-10-31T06:48:36.581Z,102039.48
2022-10-31T06:51:07.536Z,102032.45
2022-10-31T06:53:36.769Z,102040.44
2022-10-31T06:56:06.982Z,102037.05
2022-10-31T06:58:37.995Z,102036.55
2022-10-31T07:01:08.948Z,102039.13
2022-10-31T07:03:38.297Z,102042.12
2022-10-31T07:06:07.972Z,102047.45
2022-10-31T07:08:37.366Z,102051.20
2022-10-31T07:11:06.940Z,102051.97
2022-10-31T07:13:36.559Z,102054.77
2022-10-31T07:16:08.966Z,102057.80
2022-10-31T07:18:38.624Z,102061.25
2022-10-31T07:21:09.678Z,102059.11
2022-10-31T07:23:38.999Z,102062.48
2022-10-31T07:26:27.150Z,102056.28
2022-10-31T07:28:56.540Z,102055.16
2022-10-31T07:31:26.838Z,102061.94
2022-10-31T07:33:57.803Z,102056.16
2022-10-31T07:36:31.488Z,102058.89
2022-10-31T07:39:03.310Z,102057.09
2022-10-31T07:41:34.449Z,102062.81
2022-10-31T07:44:04.785Z,102058.27
2022-10-31T07:46:38.794Z,102064.45
2022-10-31T07:49:12.824Z,102070.44
2022-10-31T07:52:00.232Z,102064.00
2022-10-31T07:54:47.379Z,102068.10
2022-10-31T07:57:21.467Z,102069.78
2022-10-31T07:59:49.511Z,102059.72
2022-10-31T08:02:19.505Z,102072.02
2022-10-31T08:04:57.185Z,102068.03
2022-10-31T08:07:43.440Z,102071.02
2022-10-31T08:10:14.430Z,102070.70
2022-10-31T08:12:43.845Z,102069.39
2022-10-31T08:15:13.385Z,102066.11
2022-10-31T08:17:42.669Z,102061.51
2022-10-31T08:20:12.681Z,102059.44
2022-10-31T08:22:44.053Z,102059.24
2022-10-31T08:25:14.036Z,102059.77
2022-10-31T08:27:44.861Z,102053.23
2022-10-31T08:30:16.082Z,102053.36
2022-10-31T08:32:47.312Z,102052.34
2022-10-31T08:35:35.156Z,102048.80
2022-10-31T08:38:21.319Z,102048.47
2022-10-31T08:40:51.809Z,102053.81
2022-10-31T08:43:22.338Z,102042.06
2022-10-31T08:45:54.115Z,102036.00
2022-10-31T08:48:24.324Z,102039.75
2022-10-31T08:50:55.819Z,102037.46
2022-10-31T08:53:26.473Z,102029.58
2022-10-31T08:55:58.453Z,102038.01
2022-10-31T08:58:28.313Z,102041.86
2022-10-31T09:01:01.294Z,102036.48
2022-10-31T09:03:32.861Z,102033.99
2022-10-31T09:06:04.336Z,102016.45
2022-10-31T09:08:34.561Z,102021.77
2022-10-31T09:11:04.382Z,102027.91
2022-10-31T09:13:51.641Z,102025.14
2022-10-31T09:16:37.489Z,102021.78
2022-10-31T09:19:11.453Z,102015.19
2022-10-31T09:21:38.898Z,102012.76
2022-10-31T09:24:08.823Z,102005.83
2022-10-31T09:26:38.222Z,101997.31
2022-10-31T09:29:10.501Z,102002.04
2022-10-31T09:31:44.953Z,101988.59
2022-10-31T09:34:28.823Z,101975.36
2022-10-31T09:36:59.936Z,101976.02
2022-10-31T09:39:29.852Z,101974.88
2022-10-31T09:42:24.751Z,101969.63
2022-10-31T09:45:10.976Z,101968.50
2022-10-31T09:47:58.579Z,101966.81
2022-10-31T09:50:50.759Z,101965.45
2022-10-31T09:53:50.512Z,101958.66
2022-10-31T09:56:23.176Z,101955.39
2022-10-31T09:58:56.627Z,101952.64
2022-10-31T10:01:32.245Z,101951.87
2022-10-31T10:04:04.871Z,101947.85
2022-10-31T10:06:47.148Z,101932.88
2022-10-31T10:09:33.167Z,101928.83
2022-10-31T10:12:26.909Z,101928.73
2022-10-31T10:15:19.767Z,101932.70
2022-10-31T10:18:01.873Z,101922.92
2022-10-31T10:20:53.233Z,101915.69
2022-10-31T10:23:34.822Z,101912.94
2022-10-31T10:26:11.360Z,101904.20
2022-10-31T10:28:43.774Z,101899.94
2022-10-31T10:31:19.414Z,101906.54
2022-10-31T10:34:17.709Z,101902.87
2022-10-31T10:36:55.986Z,101894.36
2022-10-31T10:39:31.843Z,101901.59
2022-10-31T10:42:19.855Z,101909.47
2022-10-31T10:45:08.698Z,101915.40
2022-10-31T10:47:43.910Z,101917.77
2022-10-31T10:50:19.152Z,101917.50
2022-10-31T10:52:51.537Z,101911.44
2022-10-31T10:55:30.122Z,101911.34
2022-10-31T10:58:10.101Z,101906.91
2022-10-31T11:00:51.068Z,101907.18
2022-10-31T11:03:20.585Z,101899.69
2022-10-31T11:06:02.229Z,101885.58
2022-10-31T11:08:36.694Z,101875.72
2022-10-31T11:11:21.394Z,101868.30
2022-10-31T11:13:52.058Z,101865.92
2022-10-31T11:16:43.149Z,101858.44
2022-10-31T11:19:18.640Z,101852.38
2022-10-31T11:21:53.940Z,101838.06
2022-10-31T11:24:22.269Z,101832.91
2022-10-31T11:27:00.024Z,101828.98
2022-10-31T11:29:29.369Z,101832.55
2022-10-31T11:32:01.008Z,101835.84
2022-10-31T11:34:42.513Z,101821.45
2022-10-31T11:37:18.223Z,101822.08
2022-10-31T11:39:52.273Z,101818.16
2022-10-31T11:42:24.216Z,101809.82
2022-10-31T11:44:55.686Z,101803.47
2022-10-31T11:47:30.665Z,101790.61
2022-10-31T11:50:03.345Z,101777.56
2022-10-31T11:52:32.538Z,101761.84
2022-10-31T11:55:05.096Z,101767.45
2022-10-31T11:57:34.356Z,101755.95
2022-10-31T12:00:06.077Z,101766.86
2022-10-31T12:02:40.684Z,101757.68
2022-10-31T12:05:26.057Z,101760.48
2022-10-31T12:07:59.243Z,101754.12
2022-10-31T12:10:29.574Z,101744.04
2022-10-31T12:13:06.100Z,101733.26
2022-10-31T12:15:37.656Z,101743.13
2022-10-31T12:18:26.592Z,101739.16
2022-10-31T12:21:01.902Z,101724.53
2022-10-31T12:23:34.301Z,101716.45
2022-10-31T12:26:09.491Z,101694.47
2022-10-31T12:29:05.930Z,101692.73
2022-10-31T12:31:44.256Z,101689.28
2022-10-31T12:34:49.178Z,101679.13
2022-10-31T12:37:49.992Z,101649.12
2022-10-31T12:40:43.366Z,101677.14
2022-10-31T12:43:38.401Z,101672.67
2022-10-31T12:46:27.060Z,101662.52
2022-10-31T12:49:25.329Z,101656.63
2022-10-31T12:51:57.739Z,101649.58
2022-10-31T12:54:51.482Z,101644.45
2022-10-31T12:57:38.946Z,101629.51
2022-10-31T13:00:19.342Z,101628.58
2022-10-31T13:02:56.560Z,101615.97
2022-10-31T13:05:37.542Z,101614.00
2022-10-31T13:08:12.889Z,101606.58
2022-10-31T13:10:50.442Z,101594.12
2022-10-31T13:13:28.698Z,101591.68
2022-10-31T13:16:04.056Z,101586.52
2022-10-31T13:18:39.100Z,101579.48
2022-10-31T13:21:10.748Z,101567.33
2022-10-31T13:23:51.040Z,101566.00
2022-10-31T13:26:15.827Z,101567.18
2022-10-31T13:28:51.402Z,101556.60
2022-10-31T13:31:21.158Z,101548.27
2022-10-31T13:33:55.494Z,101546.50
2022-10-31T13:36:37.359Z,101550.26
2022-10-31T13:39:26.486Z,101541.65
2022-10-31T13:41:59.284Z,101529.38
2022-10-31T13:44:37.398Z,101530.02
2022-10-31T13:47:02.868Z,101527.00
2022-10-31T13:49:35.493Z,101524.04
2022-10-31T13:52:14.659Z,101521.02
2022-10-31T13:54:46.722Z,101513.41
2022-10-31T13:57:21.580Z,101508.09
2022-10-31T14:00:06.292Z,101505.20
2022-10-31T14:02:38.335Z,101500.73
2022-10-31T14:05:22.848Z,101492.53
2022-10-31T14:07:53.288Z,101481.44
2022-10-31T14:10:34.689Z,101481.61
2022-10-31T14:13:19.418Z,101476.96
2022-10-31T14:16:01.022Z,101475.73
2022-10-31T14:18:35.645Z,101464.41
2022-10-31T14:21:26.313Z,101449.54
2022-10-31T14:23:56.103Z,101447.67
2022-10-31T14:26:32.016Z,101440.56
2022-10-31T14:29:04.290Z,101432.28
2022-10-31T14:31:41.575Z,101439.33
2022-10-31T14:34:20.373Z,101429.36
2022-10-31T14:37:08.887Z,101427.03
2022-10-31T14:39:44.666Z,101427.41
2022-10-31T14:42:26.033Z,101430.70
2022-10-31T14:45:01.590Z,101431.03
2022-10-31T14:47:36.615Z,101429.11
2022-10-31T14:50:27.967Z,101420.14
2022-10-31T14:52:59.592Z,101413.71
2022-10-31T14:55:29.152Z,101401.67
2022-10-31T14:58:01.792Z,101401.67
2022-10-31T15:00:30.642Z,101397.36
2022-10-31T15:03:05.905Z,101396.99
2022-10-31T15:05:37.313Z,101387.44
2022-10-31T15:08:09.280Z,101390.56
2022-10-31T15:10:40.561Z,101380.52
2022-10-31T15:13:18.516Z,101380.19
2022-10-31T15:15:52.176Z,101370.98
2022-10-31T15:18:22.617Z,101366.76
2022-10-31T15:20:51.366Z,101366.77
2022-10-31T15:23:34.160Z,101360.38
2022-10-31T15:26:06.118Z,101357.70
2022-10-31T15:28:35.704Z,101354.42
2022-10-31T15:31:05.289Z,101344.91
2022-10-31T15:33:47.961Z,101337.70
2022-10-31T15:36:29.258Z,101336.05
2022-10-31T15:38:59.155Z,101326.66
2022-10-31T15:41:41.149Z,101330.73
2022-10-31T15:44:16.136Z,101329.33
2022-10-31T15:46:45.734Z,101325.50
2022-10-31T15:49:20.833Z,101326.83
2022-10-31T15:51:54.124Z,101326.77
2022-10-31T15:54:21.684Z,101326.23
2022-10-31T15:56:51.337Z,101320.23
2022-10-31T15:59:25.563Z,101308.26
2022-10-31T16:02:03.448Z,101300.91
2022-10-31T16:04:32.934Z,101299.01
2022-10-31T16:07:04.572Z,101298.62
2022-10-31T16:09:33.861Z,101296.41
2022-10-31T16:12:03.149Z,101293.43
2022-10-31T16:14:34.796Z,101289.81
2022-10-31T16:17:04.080Z,101284.14
2022-10-31T16:19:38.424Z,101285.34
2022-10-31T16:22:13.260Z,101289.12
2022-10-31T16:24:47.395Z,101282.44
2022-10-31T16:27:26.648Z,101278.28
2022-10-31T16:29:57.295Z,101283.55
2022-10-31T16:32:38.851Z,101282.30
2022-10-31T16:35:14.442Z,101283.66
2022-10-31T16:37:44.015Z,101287.74
2022-10-31T16:40:14.512Z,101280.71
2022-10-31T16:42:44.514Z,101274.05
2022-10-31T16:45:25.785Z,101278.61
2022-10-31T16:47:55.025Z,101272.47
2022-10-31T16:50:27.081Z,101269.66
2022-10-31T16:55:27.671Z,101258.91
2022-10-31T16:57:58.396Z,101254.86
2022-10-31T17:00:29.336Z,101260.70
2022-10-31T17:02:59.082Z,101249.88
2022-10-31T17:05:30.358Z,101246.87
2022-10-31T17:08:00.767Z,101245.83
2022-10-31T17:10:30.488Z,101249.06
2022-10-31T17:13:00.356Z,101244.67
2022-10-31T17:15:30.808Z,101230.25
2022-10-31T17:18:00.751Z,101221.49
2022-10-31T17:20:31.905Z,101216.13
2022-10-31T17:23:01.734Z,101209.13
2022-10-31T17:25:32.232Z,101198.67
2022-10-31T17:28:01.618Z,101201.33
2022-10-31T17:30:31.370Z,101186.48
2022-10-31T17:33:01.314Z,101182.80
2022-10-31T17:35:30.988Z,101202.28
2022-10-31T17:38:00.528Z,101195.66
2022-10-31T17:40:29.901Z,101208.77
2022-10-31T17:42:59.966Z,101207.73
2022-10-31T17:45:29.525Z,101201.77
2022-10-31T17:47:58.846Z,101204.95
2022-10-31T17:50:28.849Z,101210.52
2022-10-31T17:52:59.853Z,101204.05
2022-10-31T17:55:34.384Z,101198.70
2022-10-31T17:58:00.687Z,101194.26
2022-10-31T18:00:29.908Z,101184.62
2022-10-31T18:02:59.833Z,101182.70
2022-10-31T18:05:29.421Z,101177.41
2022-10-31T18:08:03.817Z,101177.69
2022-10-31T18:10:31.043Z,101178.82
2022-10-31T18:13:00.811Z,101160.78
2022-10-31T18:15:30.415Z,101151.52
2022-10-31T18:18:00.181Z,101146.70
2022-10-31T18:20:29.815Z,101153.55
2022-10-31T18:22:59.078Z,101147.60
2022-10-31T18:25:28.592Z,101147.82
2022-10-31T18:27:58.993Z,101155.91
2022-10-31T18:30:28.682Z,101157.23
2022-10-31T18:32:57.972Z,101153.55
2022-10-31T18:35:27.208Z,101154.86
2022-10-31T18:37:59.278Z,101152.97
2022-10-31T18:40:27.519Z,101156.13
2022-10-31T18:42:56.798Z,101157.95
2022-10-31T18:45:45.963Z,101151.82
2022-10-31T18:47:57.541Z,101149.89
2022-10-31T18:50:27.107Z,101137.70
2022-10-31T18:52:56.511Z,101140.44
2022-10-31T18:55:25.911Z,101135.48
2022-10-31T18:57:55.258Z,101130.53
2022-10-31T19:00:24.659Z,101132.02
2022-10-31T19:02:56.480Z,101130.03
2022-10-31T19:05:24.961Z,101127.28
2022-10-31T19:07:54.338Z,101121.50
2022-10-31T19:10:23.661Z,101119.19
2022-10-31T19:12:53.196Z,101122.66
2022-10-31T19:15:22.477Z,101118.68
2022-10-31T19:17:52.022Z,101114.31
2022-10-31T19:20:21.374Z,101116.99
2022-10-31T19:22:50.972Z,101114.31
2022-10-31T19:25:20.407Z,101112.80
2022-10-31T19:27:50.196Z,101107.61
2022-10-31T19:30:21.381Z,101100.15
2022-10-31T19:32:52.440Z,101106.66
2022-10-31T19:35:21.838Z,101095.48
2022-10-31T19:37:51.179Z,101103.72
2022-10-31T19:40:20.994Z,101101.07
2022-10-31T19:46:01.384Z,101091.50
2022-10-31T19:48:31.469Z,101083.19
2022-10-31T19:51:04.979Z,101082.74
2022-10-31T19:53:34.898Z,101079.94
2022-10-31T19:56:04.622Z,101070.13
2022-10-31T19:58:34.322Z,101071.72
2022-10-31T20:01:11.634Z,101066.91
2022-10-31T20:03:42.591Z,101065.81
2022-10-31T20:06:26.729Z,101064.41
2022-10-31T20:08:57.473Z,101070.09
2022-10-31T20:11:28.549Z,101070.97
2022-10-31T20:13:59.148Z,101067.78
2022-10-31T20:16:29.320Z,101068.98
2022-10-31T20:18:59.822Z,101063.39
2022-10-31T20:21:31.039Z,101046.87
2022-10-31T20:24:02.084Z,101054.45
2022-10-31T20:26:32.900Z,101057.28
2022-10-31T20:29:03.335Z,101056.89
2022-10-31T20:31:35.377Z,101056.20
2022-10-31T20:34:05.036Z,101053.19
2022-10-31T20:36:34.711Z,101046.69
2022-10-31T20:39:04.795Z,101040.81
2022-10-31T20:41:35.894Z,101043.47
2022-10-31T20:44:05.353Z,101034.23
2022-10-31T20:46:34.773Z,101024.78
2022-10-31T20:49:04.261Z,101034.13
2022-10-31T20:51:33.742Z,101026.48
2022-10-31T20:54:03.163Z,101022.52
2022-10-31T20:56:32.453Z,101024.20
2022-10-31T20:59:01.854Z,101012.86
2022-10-31T21:01:33.658Z,101009.58
2022-10-31T21:04:04.965Z,101004.84
2022-10-31T21:06:34.419Z,101003.42
2022-10-31T21:09:03.943Z,100996.74
2022-10-31T21:11:34.937Z,100997.44
2022-10-31T21:14:04.630Z,100992.70
2022-10-31T21:16:36.336Z,100993.83
2022-10-31T21:19:06.297Z,100983.58
2022-10-31T21:21:37.136Z,100982.30
2022-10-31T21:24:09.488Z,100984.06
2022-10-31T21:26:41.672Z,100982.05
2022-10-31T21:29:11.903Z,100978.03
2022-10-31T21:31:41.661Z,100978.43
2022-10-31T21:34:11.462Z,100972.20
2022-10-31T21:36:40.759Z,100981.32
2022-10-31T21:39:11.659Z,100973.02
2022-10-31T21:41:40.948Z,100973.89
2022-10-31T21:44:10.262Z,100979.52
2022-10-31T21:46:40.025Z,100970.89
2022-10-31T21:49:11.149Z,100974.97
2022-10-31T21:51:42.381Z,100987.09
2022-10-31T21:54:30.006Z,100989.98
2022-10-31T21:57:00.675Z,100987.23
2022-10-31T21:59:30.584Z,100993.25
2022-10-31T22:02:01.062Z,100991.95
2022-10-31T22:04:30.391Z,100987.09
2022-10-31T22:06:59.981Z,100979.14
2022-10-31T22:09:29.294Z,100977.38
2022-10-31T22:11:59.814Z,100980.06
2022-10-31T22:14:29.236Z,100970.70
2022-10-31T22:16:58.525Z,100964.56
2022-10-31T22:19:27.784Z,100957.56
2022-10-31T22:21:57.348Z,100949.55
2022-10-31T22:24:26.570Z,100951.69
2022-10-31T22:26:55.796Z,100950.91
2022-10-31T22:29:26.679Z,100938.67
2022-10-31T22:31:59.522Z,100930.03
2022-10-31T22:34:27.109Z,100934.72
2022-10-31T22:36:56.685Z,100924.76
2022-10-31T22:39:26.101Z,100921.09
2022-10-31T22:41:55.319Z,100916.00
2022-10-31T22:44:24.726Z,100911.67
2022-10-31T22:46:54.017Z,100910.34
2022-10-31T22:49:23.489Z,100900.72
2022-10-31T22:51:52.819Z,100894.77
2022-10-31T22:54:22.205Z,100896.72
2022-10-31T22:56:51.443Z,100889.41
2022-10-31T22:59:20.767Z,100891.37
2022-10-31T23:01:50.164Z,100890.35
2022-10-31T23:04:19.625Z,100888.72
2022-10-31T23:06:49.129Z,100892.39
2022-10-31T23:09:18.741Z,100889.27
2022-10-31T23:11:47.962Z,100887.53
2022-10-31T23:14:21.000Z,100877.96
2022-10-31T23:16:56.023Z,100873.22
2022-10-31T23:19:30.413Z,100872.74
2022-10-31T23:22:03.947Z,100865.28
2022-10-31T23:24:38.605Z,100862.02
2022-10-31T23:27:23.037Z,100856.02
2022-10-31T23:29:54.481Z,100854.08
2022-10-31T23:32:33.727Z,100850.86
2022-10-31T23:35:05.858Z,100846.20
2022-10-31T23:37:37.095Z,100843.47
2022-10-31T23:40:08.535Z,100850.98
2022-10-31T23:42:37.949Z,100842.39
2022-10-31T23:45:08.131Z,100846.39
2022-10-31T23:47:42.429Z,100838.13
2022-10-31T23:50:09.440Z,100830.22
2022-10-31T23:52:38.798Z,100822.75
2022-10-31T23:55:08.715Z,100821.59
2022-10-31T23:57:37.952Z,100826.32
